createdAt,value
2023-02-12T00:01:38.258Z,37.99
2023-02-12T00:11:39.731Z,38.24
2023-02-12T00:21:41.142Z,38.37
2023-02-12T00:31:42.578Z,38.38
2023-02-12T00:41:44.117Z,38.41
2023-02-12T00:51:45.488Z,38.40
2023-02-12T01:01:47.090Z,38.43
2023-02-12T01:11:48.475Z,38.38
2023-02-12T01:21:50.065Z,38.46
2023-02-12T01:31:51.727Z,38.57
2023-02-12T01:41:53.378Z,38.69
2023-02-12T01:52:01.190Z,38.59
2023-02-12T02:02:03.469Z,38.65
2023-02-12T02:12:23.950Z,38.80
2023-02-12T02:22:32.253Z,38.74
2023-02-12T02:32:41.197Z,38.79
2023-02-12T02:42:54.958Z,38.65
2023-02-12T02:53:07.559Z,38.61
2023-02-12T03:03:19.834Z,38.34
2023-02-12T03:13:23.746Z,38.23
2023-02-12T03:23:26.981Z,37.97
2023-02-12T03:33:52.900Z,37.78
2023-02-12T03:43:57.844Z,37.70
2023-02-12T03:53:59.246Z,37.69
2023-02-12T04:04:03.085Z,37.66
2023-02-12T04:14:38.438Z,37.74
2023-02-12T04:25:00.270Z,37.75
2023-02-12T04:35:13.681Z,37.82
2023-02-12T04:45:31.780Z,37.89
2023-02-12T04:55:33.325Z,38.10
2023-02-12T05:05:34.918Z,38.16
2023-02-12T05:15:39.055Z,38.12
2023-02-12T05:25:40.636Z,37.88
2023-02-12T05:35:42.165Z,37.79
2023-02-12T05:45:44.939Z,37.69
2023-02-12T05:55:46.417Z,37.61
2023-02-12T06:05:51.448Z,37.67
2023-02-12T06:15:52.896Z,37.85
2023-02-12T06:25:56.293Z,37.92
2023-02-12T06:35:58.082Z,37.91
2023-02-12T06:46:02.714Z,37.99
2023-02-12T06:56:04.988Z,37.88
2023-02-12T07:06:06.797Z,37.83
2023-02-12T07:16:10.098Z,37.89
2023-02-12T07:26:12.478Z,37.92
2023-02-12T07:36:18.465Z,38.02
2023-02-12T07:46:22.160Z,38.09
2023-02-12T07:56:25.020Z,38.05
2023-02-12T08:06:28.936Z,38.02
2023-02-12T08:16:31.518Z,38.02
2023-02-12T08:26:34.755Z,38.08
2023-02-12T08:36:38.340Z,38.00
2023-02-12T08:46:42.725Z,37.99
2023-02-12T08:56:45.249Z,37.93
2023-02-12T09:06:46.912Z,37.89
2023-02-12T09:16:48.500Z,37.84
2023-02-12T09:26:49.958Z,37.83
2023-02-12T09:36:51.494Z,37.85
2023-02-12T09:46:59.934Z,37.98
2023-02-12T09:57:01.638Z,37.76
2023-02-12T10:07:12.188Z,37.78
2023-02-12T10:17:42.154Z,37.69
2023-02-12T10:27:49.628Z,37.40
2023-02-12T10:38:00.544Z,37.32
2023-02-12T10:48:24.107Z,37.67
2023-02-12T10:58:25.496Z,37.61
2023-02-12T11:08:34.677Z,37.53
2023-02-12T11:18:37.369Z,37.58
2023-02-12T11:28:38.975Z,37.40
2023-02-12T11:38:51.834Z,37.54
2023-02-12T11:48:53.685Z,37.50
2023-02-12T11:58:56.028Z,37.38
2023-02-12T12:09:05.231Z,37.55
2023-02-12T12:19:29.739Z,37.57
2023-02-12T12:29:53.042Z,37.54
2023-02-12T12:40:13.301Z,37.50
2023-02-12T12:50:23.777Z,37.43
2023-02-12T13:00:31.930Z,37.40
2023-02-12T13:10:48.716Z,37.45
2023-02-12T13:21:11.414Z,37.38
2023-02-12T13:31:32.516Z,37.44
2023-02-12T13:41:34.991Z,37.39
2023-02-12T13:51:43.993Z,37.47
2023-02-12T14:01:47.535Z,37.53
2023-02-12T14:11:50.907Z,37.49
2023-02-12T14:21:52.404Z,37.46
2023-02-12T14:31:54.048Z,37.64
2023-02-12T14:42:10.779Z,37.58
2023-02-12T14:52:18.122Z,37.70
2023-02-12T15:02:28.282Z,37.96
2023-02-12T15:12:39.172Z,37.88
2023-02-12T15:22:40.875Z,37.92
2023-02-12T15:32:45.967Z,37.79
2023-02-12T15:42:58.785Z,38.12
2023-02-12T15:53:00.178Z,38.24
2023-02-12T16:03:01.572Z,38.24
2023-02-12T16:13:02.958Z,38.27
2023-02-12T16:23:05.545Z,38.30
2023-02-12T16:33:36.558Z,38.46
2023-02-12T16:43:37.968Z,38.63
2023-02-12T16:53:45.605Z,38.71
2023-02-12T17:03:50.169Z,38.75
2023-02-12T17:13:52.569Z,38.73
2023-02-12T17:23:54.456Z,38.79
2023-02-12T17:33:56.005Z,38.75
2023-02-12T17:43:57.424Z,38.76
2023-02-12T17:53:59.015Z,38.91
2023-02-12T18:04:00.579Z,38.90
2023-02-12T18:14:02.196Z,38.99
2023-02-12T18:24:03.745Z,39.04
2023-02-12T18:34:05.603Z,39.11
2023-02-12T18:44:07.152Z,38.99
2023-02-12T18:54:12.009Z,39.01
2023-02-12T19:04:14.042Z,39.06
2023-02-12T19:14:16.634Z,39.00
2023-02-12T19:24:18.226Z,39.03
2023-02-12T19:34:20.998Z,39.17
2023-02-12T19:44:23.601Z,39.30
2023-02-12T19:54:25.134Z,39.27
2023-02-12T20:04:26.918Z,39.27
2023-02-12T20:14:28.330Z,39.42
2023-02-12T20:24:31.089Z,39.56
2023-02-12T20:34:42.439Z,39.58
2023-02-12T20:44:50.572Z,39.50
2023-02-12T20:54:51.952Z,39.64
2023-02-12T21:04:53.586Z,39.64
2023-02-12T21:14:55.118Z,39.57
2023-02-12T21:24:56.565Z,39.79
2023-02-12T21:34:57.959Z,39.65
2023-02-12T21:44:59.340Z,39.74
2023-02-12T21:55:00.758Z,39.78
2023-02-12T22:05:02.317Z,39.89
2023-02-12T22:15:03.896Z,39.80
2023-02-12T22:25:05.980Z,39.97
2023-02-12T22:35:07.795Z,39.95
2023-02-12T22:45:09.263Z,39.81
2023-02-12T22:55:10.702Z,40.02
2023-02-12T23:05:12.269Z,40.00
2023-02-12T23:15:13.805Z,39.94
2023-02-12T23:25:15.257Z,40.04
2023-02-12T23:35:16.729Z,40.18
2023-02-12T23:45:18.277Z,40.25
2023-02-12T23:55:20.157Z,40.32
